Time;durP1;ratioP1;P1;durP2;ratioP2;P2;SDS_P1;SDS_P2;PMS_P1;PMS_P2;Temp;Humidity;BMP_temperature;BMP_pressure;BME280_temperature;BME280_humidity;BME280_pressure;Samples;Min_cycle;Max_cycle;Signal;HPM_P1;HPM_P2
2022/12/10 00:01:14;;;;;;;;;;;18.30;62.90;;;;;;4509470;31;20048;-73
2022/12/10 00:03:40;;;;;;;;;;;18.20;62.90;;;;;;4509635;31;20083;-73
2022/12/10 00:06:07;;;;;;;;;;;18.20;62.90;;;;;;4510307;31;20021;-73
2022/12/10 00:08:33;;;;;;;;;;;18.20;63.00;;;;;;4512146;31;20056;-74
2022/12/10 00:11:01;;;;;;;;;;;18.20;62.90;;;;;;4508847;31;20055;-73
2022/12/10 00:13:27;;;;;;;;;;;18.20;62.90;;;;;;4508019;31;20029;-73
2022/12/10 00:15:53;;;;;;;;;;;18.20;63.00;;;;;;4507832;31;20031;-73
2022/12/10 00:18:20;;;;;;;;;;;18.10;62.90;;;;;;4511096;31;20033;-73
2022/12/10 00:20:46;;;;;;;;;;;18.10;62.90;;;;;;4511387;31;20025;-73
2022/12/10 00:23:11;;;;;;;;;;;18.10;62.80;;;;;;4511913;31;20187;-73
2022/12/10 00:25:37;;;;;;;;;;;18.10;62.90;;;;;;4510130;31;20013;-74
2022/12/10 00:28:06;;;;;;;;;;;18.10;62.90;;;;;;4510605;31;20032;-74
2022/12/10 00:30:32;;;;;;;;;;;18.00;62.80;;;;;;4509864;31;20053;-74
2022/12/10 00:32:59;;;;;;;;;;;18.00;62.80;;;;;;4510668;31;20031;-73
2022/12/10 00:35:24;;;;;;;;;;;18.00;62.80;;;;;;4509894;31;20028;-74
2022/12/10 00:37:50;;;;;;;;;;;18.00;62.90;;;;;;4510306;31;20139;-73
2022/12/10 00:40:16;;;;;;;;;;;18.00;62.80;;;;;;4510581;31;20034;-74
2022/12/10 00:42:42;;;;;;;;;;;18.00;62.80;;;;;;4500382;31;20036;-74
2022/12/10 00:45:07;;;;;;;;;;;18.00;62.80;;;;;;4500594;31;20033;-71
2022/12/10 00:47:41;;;;;;;;;;;18.00;62.90;;;;;;4496480;31;20031;-73
2022/12/10 00:50:07;;;;;;;;;;;17.90;62.90;;;;;;4498834;31;20021;-73
2022/12/10 00:52:36;;;;;;;;;;;17.90;62.70;;;;;;4501854;31;20029;-73
2022/12/10 00:55:05;;;;;;;;;;;17.90;62.80;;;;;;4500137;31;20029;-72
2022/12/10 00:57:31;;;;;;;;;;;17.90;62.70;;;;;;4501683;31;20163;-73
2022/12/10 00:59:56;;;;;;;;;;;17.90;62.80;;;;;;4499467;31;20025;-73
2022/12/10 01:02:22;;;;;;;;;;;17.80;62.60;;;;;;4502400;31;20017;-73
2022/12/10 01:04:51;;;;;;;;;;;17.80;62.70;;;;;;4500599;31;20055;-73
2022/12/10 01:07:17;;;;;;;;;;;17.80;62.70;;;;;;4501349;31;20523;-73
2022/12/10 01:09:43;;;;;;;;;;;17.80;62.70;;;;;;4512022;31;20078;-73
2022/12/10 01:12:11;;;;;;;;;;;17.80;62.70;;;;;;4504931;31;20032;-73
2022/12/10 01:14:37;;;;;;;;;;;17.80;62.70;;;;;;4499383;31;20021;-73
2022/12/10 01:17:05;;;;;;;;;;;17.80;62.70;;;;;;4500442;31;20025;-73
2022/12/10 01:19:32;;;;;;;;;;;17.80;62.60;;;;;;4501169;31;20044;-73
2022/12/10 01:21:58;;;;;;;;;;;17.80;62.60;;;;;;4500369;31;20029;-73
2022/12/10 01:24:25;;;;;;;;;;;17.80;62.50;;;;;;4501489;31;20535;-73
2022/12/10 01:26:51;;;;;;;;;;;17.80;62.50;;;;;;4500605;31;20033;-73
2022/12/10 01:29:18;;;;;;;;;;;17.80;62.40;;;;;;4499755;31;20168;-73
2022/12/10 01:31:56;;;;;;;;;;;17.80;62.40;;;;;;4500975;31;20147;-73
2022/12/10 01:34:22;;;;;;;;;;;17.80;62.30;;;;;;4512500;31;20087;-73
2022/12/10 01:36:52;;;;;;;;;;;17.90;62.30;;;;;;4511612;31;20158;-73
2022/12/10 01:39:18;;;;;;;;;;;17.80;62.20;;;;;;4512214;31;20040;-73
2022/12/10 01:41:49;;;;;;;;;;;17.90;62.20;;;;;;4512746;31;20456;-72
2022/12/10 01:44:15;;;;;;;;;;;17.90;62.30;;;;;;4512710;31;20469;-73
2022/12/10 01:46:42;;;;;;;;;;;17.90;62.10;;;;;;4512122;31;20017;-72
2022/12/10 01:49:16;;;;;;;;;;;17.90;62.00;;;;;;4511522;31;20237;-74
2022/12/10 01:51:43;;;;;;;;;;;17.90;62.00;;;;;;4513404;31;20105;-73
2022/12/10 01:54:14;;;;;;;;;;;17.90;62.00;;;;;;4512540;31;20045;-73
2022/12/10 01:56:45;;;;;;;;;;;17.90;61.90;;;;;;4512908;31;20095;-73
2022/12/10 01:59:13;;;;;;;;;;;17.90;61.90;;;;;;4513001;31;20427;-73
2022/12/10 02:01:52;;;;;;;;;;;17.90;61.80;;;;;;4511451;31;20025;-73
2022/12/10 02:04:25;;;;;;;;;;;17.90;61.90;;;;;;4511847;31;20372;-73
2022/12/10 02:07:13;;;;;;;;;;;17.90;61.80;;;;;;4512424;31;20772;-73
2022/12/10 02:09:46;;;;;;;;;;;17.90;61.80;;;;;;4501897;31;20142;-74
2022/12/10 02:12:29;;;;;;;;;;;17.90;61.70;;;;;;4512867;31;21972;-73
2022/12/10 02:15:10;;;;;;;;;;;17.90;61.70;;;;;;4511368;31;20036;-73
2022/12/10 02:17:42;;;;;;;;;;;17.90;61.70;;;;;;4511810;31;20118;-73
2022/12/10 02:20:13;;;;;;;;;;;17.90;61.70;;;;;;4512722;31;20535;-73
2022/12/10 02:22:41;;;;;;;;;;;17.90;62.20;;;;;;4512841;31;20033;-73
2022/12/10 02:25:08;;;;;;;;;;;17.90;61.80;;;;;;4511729;31;20028;-73
2022/12/10 02:27:42;;;;;;;;;;;17.90;61.80;;;;;;4499525;31;20028;-73
2022/12/10 02:30:08;;;;;;;;;;;17.90;61.80;;;;;;4505459;31;20086;-73
2022/12/10 02:32:36;;;;;;;;;;;17.90;61.70;;;;;;4514054;31;20174;-73
2022/12/10 02:35:05;;;;;;;;;;;17.80;61.70;;;;;;4514329;31;20035;-73
2022/12/10 02:37:34;;;;;;;;;;;17.90;61.60;;;;;;4515335;31;20037;-73
2022/12/10 02:40:02;;;;;;;;;;;17.80;61.60;;;;;;4514767;31;20087;-73
2022/12/10 02:42:30;;;;;;;;;;;17.80;61.60;;;;;;4515575;31;20032;-73
2022/12/10 02:44:59;;;;;;;;;;;17.80;61.50;;;;;;4514792;31;20518;-73
2022/12/10 02:47:25;;;;;;;;;;;17.80;61.50;;;;;;4515612;31;20040;-73
2022/12/10 02:49:53;;;;;;;;;;;17.80;61.60;;;;;;4514636;31;20028;-73
2022/12/10 02:52:19;;;;;;;;;;;17.80;61.60;;;;;;4515245;31;20039;-73
2022/12/10 02:54:46;;;;;;;;;;;17.80;61.60;;;;;;4514144;31;20020;-73
2022/12/10 02:57:31;;;;;;;;;;;17.80;61.60;;;;;;4514851;31;20024;-73
2022/12/10 03:00:08;;;;;;;;;;;17.80;61.60;;;;;;4515507;31;20043;-73
2022/12/10 03:02:37;;;;;;;;;;;17.80;61.60;;;;;;4490622;31;20036;-73
2022/12/10 03:05:16;;;;;;;;;;;17.80;61.60;;;;;;4515228;31;20040;-73
2022/12/10 03:07:45;;;;;;;;;;;17.80;61.60;;;;;;4505456;31;20016;-73
2022/12/10 03:10:15;;;;;;;;;;;17.80;61.60;;;;;;4514562;31;20040;-73
2022/12/10 03:12:44;;;;;;;;;;;17.80;61.60;;;;;;4515039;31;20199;-74
2022/12/10 03:15:11;;;;;;;;;;;17.80;61.60;;;;;;4514506;31;20081;-73
2022/12/10 03:17:38;;;;;;;;;;;17.80;61.50;;;;;;4515059;31;20158;-73
2022/12/10 03:20:08;;;;;;;;;;;17.70;61.50;;;;;;4513649;31;20039;-73
2022/12/10 03:22:40;;;;;;;;;;;17.70;61.50;;;;;;4514545;31;20058;-73
2022/12/10 03:25:07;;;;;;;;;;;17.70;61.40;;;;;;4514972;31;20036;-73
2022/12/10 03:27:33;;;;;;;;;;;17.70;61.50;;;;;;4514204;31;20040;-73
2022/12/10 03:29:59;;;;;;;;;;;17.70;62.20;;;;;;4513968;31;20238;-73
2022/12/10 03:32:26;;;;;;;;;;;17.70;61.40;;;;;;4514112;31;20020;-73
2022/12/10 03:34:53;;;;;;;;;;;17.70;61.40;;;;;;4515110;31;20043;-74
2022/12/10 03:37:20;;;;;;;;;;;17.70;61.30;;;;;;4513070;31;20016;-73
2022/12/10 03:39:46;;;;;;;;;;;17.70;61.30;;;;;;4514240;31;20196;-74
2022/12/10 03:42:12;;;;;;;;;;;17.70;61.40;;;;;;4514413;31;20048;-73
2022/12/10 03:44:40;;;;;;;;;;;17.70;61.30;;;;;;4514020;31;20077;-74
2022/12/10 03:47:07;;;;;;;;;;;17.70;61.40;;;;;;4514814;31;20020;-73
2022/12/10 03:49:34;;;;;;;;;;;17.70;61.40;;;;;;4513818;31;20029;-73
2022/12/10 03:51:59;;;;;;;;;;;17.70;61.40;;;;;;4513562;31;20036;-73
2022/12/10 03:54:26;;;;;;;;;;;17.70;61.20;;;;;;4514079;31;20068;-73
2022/12/10 03:56:51;;;;;;;;;;;17.70;61.30;;;;;;4513851;31;20025;-73
2022/12/10 03:59:18;;;;;;;;;;;17.70;61.30;;;;;;4513377;31;20058;-73
2022/12/10 04:01:44;;;;;;;;;;;17.60;61.20;;;;;;4513794;31;20431;-73
2022/12/10 04:04:09;;;;;;;;;;;17.70;61.30;;;;;;4513495;31;20082;-73
2022/12/10 04:06:37;;;;;;;;;;;17.60;61.10;;;;;;4512417;31;20051;-74
2022/12/10 04:09:03;;;;;;;;;;;17.60;61.20;;;;;;4514354;31;20104;-73
2022/12/10 04:11:29;;;;;;;;;;;17.60;61.20;;;;;;4512719;31;20096;-73
2022/12/10 04:16:39;;;;;;;;;;;17.60;61.20;;;;;;4514358;31;20032;-73
2022/12/10 04:19:10;;;;;;;;;;;17.60;61.20;;;;;;4513524;31;20498;-73
2022/12/10 04:27:12;;;;;;;;;;;17.60;61.20;;;;;;4513629;31;20028;-73
2022/12/10 04:29:39;;;;;;;;;;;17.60;61.10;;;;;;4514088;31;20021;-73
2022/12/10 04:32:06;;;;;;;;;;;17.60;61.20;;;;;;4513384;31;20105;-73
2022/12/10 04:34:32;;;;;;;;;;;17.50;61.10;;;;;;4513837;31;20040;-73
2022/12/10 04:36:58;;;;;;;;;;;17.60;61.10;;;;;;4512512;31;20032;-73
2022/12/10 04:39:24;;;;;;;;;;;17.50;60.90;;;;;;4513545;31;20052;-73
2022/12/10 04:41:50;;;;;;;;;;;17.50;61.00;;;;;;4513746;31;20339;-73
2022/12/10 04:44:18;;;;;;;;;;;17.50;61.00;;;;;;4513148;31;20041;-73
2022/12/10 04:46:44;;;;;;;;;;;17.50;61.00;;;;;;4513891;31;20036;-73
2022/12/10 04:49:10;;;;;;;;;;;17.50;61.00;;;;;;4512639;31;20047;-73
2022/12/10 04:51:36;;;;;;;;;;;17.50;60.90;;;;;;4513622;31;20028;-73
2022/12/10 04:54:02;;;;;;;;;;;17.50;60.90;;;;;;4511939;31;20039;-73
2022/12/10 04:56:28;;;;;;;;;;;17.50;60.90;;;;;;4503981;31;20429;-72
2022/12/10 04:58:57;;;;;;;;;;;17.50;60.90;;;;;;4513508;31;20037;-73
2022/12/10 05:01:23;;;;;;;;;;;17.50;60.90;;;;;;4512916;31;20039;-73
2022/12/10 05:03:49;;;;;;;;;;;17.50;60.90;;;;;;4513683;31;20079;-73
2022/12/10 05:06:15;;;;;;;;;;;17.50;60.90;;;;;;4513045;31;20148;-73
2022/12/10 05:08:41;;;;;;;;;;;17.50;61.00;;;;;;4513495;31;20040;-73
2022/12/10 05:11:09;;;;;;;;;;;17.50;60.90;;;;;;4512948;31;20067;-74
2022/12/10 05:13:35;;;;;;;;;;;17.50;60.90;;;;;;4512517;31;20029;-73
2022/12/10 05:16:01;;;;;;;;;;;17.50;60.90;;;;;;4513050;31;20017;-73
2022/12/10 05:18:27;;;;;;;;;;;17.40;60.90;;;;;;4512952;31;20090;-73
2022/12/10 05:20:53;;;;;;;;;;;17.40;60.80;;;;;;4513363;31;20020;-73
2022/12/10 05:23:28;;;;;;;;;;;17.40;61.70;;;;;;4511803;31;20107;-73
2022/12/10 05:26:02;;;;;;;;;;;17.40;60.80;;;;;;4512273;31;20025;-73
2022/12/10 05:28:32;;;;;;;;;;;17.40;60.80;;;;;;4512972;31;20072;-72
2022/12/10 05:30:58;;;;;;;;;;;17.40;60.70;;;;;;4498691;31;20479;-73
2022/12/10 05:33:30;;;;;;;;;;;17.40;60.70;;;;;;4512321;31;20151;-73
2022/12/10 05:36:00;;;;;;;;;;;17.40;60.80;;;;;;4512592;31;20037;-73
2022/12/10 05:38:26;;;;;;;;;;;17.40;60.80;;;;;;4513483;31;20044;-73
2022/12/10 05:40:53;;;;;;;;;;;17.40;60.70;;;;;;4512625;31;20032;-73
2022/12/10 05:43:19;;;;;;;;;;;17.40;60.80;;;;;;4511823;31;20101;-73
2022/12/10 05:45:45;;;;;;;;;;;17.40;60.70;;;;;;4511721;31;20027;-73
2022/12/10 05:48:12;;;;;;;;;;;17.40;60.80;;;;;;4512704;31;20054;-74
2022/12/10 05:50:39;;;;;;;;;;;17.40;60.80;;;;;;4512140;31;20541;-73
2022/12/10 05:53:05;;;;;;;;;;;17.40;60.70;;;;;;4512330;31;20086;-74
2022/12/10 05:55:32;;;;;;;;;;;17.40;60.80;;;;;;4513163;31;20517;-73
2022/12/10 05:58:01;;;;;;;;;;;17.40;60.70;;;;;;4497981;31;20080;-73
2022/12/10 06:00:28;;;;;;;;;;;17.30;60.70;;;;;;4512236;31;20044;-73
2022/12/10 06:02:54;;;;;;;;;;;17.40;60.70;;;;;;4514581;31;20013;-73
2022/12/10 06:05:20;;;;;;;;;;;17.40;60.80;;;;;;4515531;31;20159;-73
2022/12/10 06:07:49;;;;;;;;;;;17.40;60.80;;;;;;4516064;31;20183;-73
2022/12/10 06:10:17;;;;;;;;;;;17.40;60.80;;;;;;4514244;31;20353;-73
2022/12/10 06:12:43;;;;;;;;;;;17.40;60.80;;;;;;4514620;31;20050;-73
2022/12/10 06:15:09;;;;;;;;;;;17.30;60.70;;;;;;4514270;31;20161;-73
2022/12/10 06:17:42;;;;;;;;;;;17.30;60.60;;;;;;4514774;31;20036;-73
2022/12/10 06:20:08;;;;;;;;;;;17.40;60.80;;;;;;4501288;31;20008;-73
2022/12/10 06:22:34;;;;;;;;;;;17.30;60.70;;;;;;4514346;31;20047;-73
2022/12/10 06:24:59;;;;;;;;;;;17.30;60.70;;;;;;4515851;31;20041;-73
2022/12/10 06:27:26;;;;;;;;;;;17.30;60.80;;;;;;4515185;31;20123;-73
2022/12/10 06:29:52;;;;;;;;;;;17.30;60.70;;;;;;4514933;31;20032;-73
2022/12/10 06:32:18;;;;;;;;;;;17.30;60.80;;;;;;4514023;31;20032;-73
2022/12/10 06:34:44;;;;;;;;;;;17.30;60.70;;;;;;4515455;31;20017;-73
2022/12/10 06:37:11;;;;;;;;;;;17.30;60.70;;;;;;4515418;31;20044;-73
2022/12/10 06:39:37;;;;;;;;;;;17.30;60.70;;;;;;4515032;31;20535;-73
2022/12/10 06:42:02;;;;;;;;;;;17.30;60.80;;;;;;4515197;31;20025;-73
2022/12/10 06:44:33;;;;;;;;;;;17.30;60.70;;;;;;4514928;31;20043;-73
2022/12/10 06:46:59;;;;;;;;;;;17.30;60.70;;;;;;4515723;31;20025;-73
2022/12/10 06:49:25;;;;;;;;;;;17.30;60.70;;;;;;4514969;31;20016;-73
2022/12/10 06:51:51;;;;;;;;;;;17.30;60.80;;;;;;4514315;31;20021;-73
2022/12/10 06:54:16;;;;;;;;;;;17.30;60.60;;;;;;4515021;31;20025;-73
2022/12/10 06:56:42;;;;;;;;;;;17.30;60.70;;;;;;4513722;31;20024;-73
2022/12/10 06:59:08;;;;;;;;;;;17.30;60.60;;;;;;4514260;31;20151;-72
2022/12/10 07:01:34;;;;;;;;;;;17.30;60.60;;;;;;4514233;31;20129;-73
2022/12/10 07:04:00;;;;;;;;;;;17.30;60.60;;;;;;4511527;31;20009;-73
2022/12/10 07:06:28;;;;;;;;;;;17.30;60.70;;;;;;4509332;31;20529;-73
2022/12/10 07:08:54;;;;;;;;;;;17.30;60.60;;;;;;4507837;31;20044;-73
2022/12/10 07:11:21;;;;;;;;;;;17.30;60.50;;;;;;4510906;31;20024;-73
2022/12/10 07:13:47;;;;;;;;;;;17.30;60.50;;;;;;4510554;31;20086;-74
2022/12/10 07:16:17;;;;;;;;;;;17.30;60.40;;;;;;4514107;31;20040;-73
2022/12/10 07:18:43;;;;;;;;;;;17.30;60.30;;;;;;4514473;31;20041;-73
2022/12/10 07:21:27;;;;;;;;;;;17.30;60.40;;;;;;4515140;31;20167;-73
2022/12/10 07:23:55;;;;;;;;;;;17.30;61.30;;;;;;4514268;31;20058;-73
2022/12/10 07:26:21;;;;;;;;;;;17.20;60.50;;;;;;4503753;31;20059;-74
2022/12/10 07:28:48;;;;;;;;;;;17.30;60.50;;;;;;4513489;31;20025;-73
2022/12/10 07:31:13;;;;;;;;;;;17.30;60.50;;;;;;4513245;31;20036;-73
2022/12/10 07:33:39;;;;;;;;;;;17.30;60.40;;;;;;4505673;31;20438;-72
2022/12/10 07:36:06;;;;;;;;;;;17.30;60.30;;;;;;4511162;31;20029;-73
2022/12/10 07:38:32;;;;;;;;;;;17.30;60.30;;;;;;4515089;31;20028;-73
2022/12/10 07:41:01;;;;;;;;;;;17.30;60.30;;;;;;4514106;31;20017;-73
2022/12/10 07:43:29;;;;;;;;;;;17.30;60.20;;;;;;4500560;31;20039;-73
2022/12/10 07:45:55;;;;;;;;;;;17.30;60.10;;;;;;4514272;31;20091;-72
2022/12/10 07:48:21;;;;;;;;;;;17.40;60.10;;;;;;4513044;31;20024;-73
2022/12/10 07:50:55;;;;;;;;;;;17.30;60.10;;;;;;4513630;31;20040;-75
2022/12/10 07:53:21;;;;;;;;;;;17.30;60.10;;;;;;4513739;31;20167;-74
2022/12/10 07:55:47;;;;;;;;;;;17.30;61.10;;;;;;4514564;31;20021;-74
2022/12/10 07:58:12;;;;;;;;;;;17.30;61.50;;;;;;4497677;31;20159;-75
2022/12/10 08:00:38;;;;;;;;;;;17.30;62.00;;;;;;4490706;31;20473;-75
2022/12/10 08:03:04;;;;;;;;;;;17.30;62.30;;;;;;4512282;31;20039;-78
2022/12/10 08:05:33;;;;;;;;;;;17.30;62.40;;;;;;4497961;31;20039;-76
2022/12/10 08:07:58;;;;;;;;;;;17.30;62.50;;;;;;4499663;31;20013;-75
2022/12/10 08:10:24;;;;;;;;;;;17.30;62.80;;;;;;4499722;31;20148;-78
2022/12/10 08:12:50;;;;;;;;;;;17.30;62.60;;;;;;4503675;31;20013;-78
2022/12/10 08:15:15;;;;;;;;;;;17.30;62.70;;;;;;4512577;31;20038;-76
2022/12/10 08:17:41;;;;;;;;;;;17.30;62.60;;;;;;4510041;31;20037;-77
2022/12/10 08:20:07;;;;;;;;;;;17.30;62.70;;;;;;4506602;31;20029;-76
2022/12/10 08:22:34;;;;;;;;;;;17.30;62.80;;;;;;4499131;31;20025;-77
2022/12/10 08:24:59;;;;;;;;;;;17.30;62.80;;;;;;4514019;31;20081;-77
2022/12/10 08:27:25;;;;;;;;;;;17.30;63.30;;;;;;4513284;31;20075;-75
2022/12/10 08:29:52;;;;;;;;;;;17.30;64.10;;;;;;4514166;31;20153;-77
2022/12/10 08:32:17;;;;;;;;;;;17.30;64.00;;;;;;4513491;31;20033;-77
2022/12/10 08:34:43;;;;;;;;;;;17.30;63.80;;;;;;4512371;31;20032;-75
2022/12/10 08:37:09;;;;;;;;;;;17.40;63.80;;;;;;4513590;31;20059;-75
2022/12/10 08:39:35;;;;;;;;;;;17.40;63.00;;;;;;4512214;31;20032;-75
2022/12/10 08:42:01;;;;;;;;;;;17.50;62.60;;;;;;4513631;31;20134;-75
2022/12/10 08:44:26;;;;;;;;;;;17.60;62.40;;;;;;4511836;31;20032;-76
2022/12/10 08:46:52;;;;;;;;;;;17.80;62.30;;;;;;4513939;31;20133;-78
2022/12/10 08:49:18;;;;;;;;;;;17.90;62.20;;;;;;4513034;31;20033;-79
2022/12/10 08:51:44;;;;;;;;;;;18.00;62.10;;;;;;4513697;31;20087;-78
2022/12/10 08:54:10;;;;;;;;;;;18.20;61.90;;;;;;4498701;31;20053;-75
2022/12/10 08:56:41;;;;;;;;;;;18.30;61.70;;;;;;4512026;31;20041;-77
2022/12/10 08:59:10;;;;;;;;;;;18.50;61.60;;;;;;4512409;31;20020;-76
2022/12/10 09:01:39;;;;;;;;;;;18.60;61.40;;;;;;4511698;31;20032;-77
2022/12/10 09:04:04;;;;;;;;;;;18.80;61.10;;;;;;4513645;31;20032;-77
2022/12/10 09:06:30;;;;;;;;;;;18.90;60.70;;;;;;4498540;31;20031;-76
2022/12/10 09:08:56;;;;;;;;;;;19.00;60.50;;;;;;4513534;31;20078;-76
2022/12/10 09:11:24;;;;;;;;;;;19.20;60.30;;;;;;4512035;31;20035;-75
2022/12/10 09:13:54;;;;;;;;;;;19.30;60.20;;;;;;4511466;31;20041;-79
2022/12/10 09:16:20;;;;;;;;;;;19.30;60.00;;;;;;4513500;31;20009;-79
2022/12/10 09:18:46;;;;;;;;;;;19.40;59.80;;;;;;4512827;31;20028;-83
2022/12/10 09:21:15;;;;;;;;;;;19.50;59.80;;;;;;4511727;31;20048;-80
2022/12/10 09:23:41;;;;;;;;;;;19.50;59.70;;;;;;4510186;31;20082;-79
2022/12/10 09:26:08;;;;;;;;;;;19.50;59.70;;;;;;4500343;31;20036;-83
2022/12/10 09:28:34;;;;;;;;;;;19.50;59.70;;;;;;4499495;31;20040;-75
2022/12/10 09:31:02;;;;;;;;;;;19.50;59.70;;;;;;4501802;31;20084;-76
2022/12/10 09:33:31;;;;;;;;;;;19.50;59.70;;;;;;4498769;31;20035;-77
2022/12/10 09:35:56;;;;;;;;;;;19.50;59.70;;;;;;4501103;31;20028;-80
2022/12/10 09:38:22;;;;;;;;;;;19.50;59.70;;;;;;4502919;31;20041;-78
2022/12/10 09:40:57;;;;;;;;;;;19.50;59.80;;;;;;4510570;31;20526;-76
2022/12/10 09:43:57;;;;;;;;;;;19.50;59.80;;;;;;4490457;31;20043;-77
2022/12/10 09:46:56;;;;;;;;;;;19.50;59.70;;;;;;4511393;31;20032;-76
2022/12/10 09:50:01;;;;;;;;;;;19.50;59.60;;;;;;4500391;31;20147;-76
2022/12/10 09:52:49;;;;;;;;;;;19.50;59.50;;;;;;4513436;31;20033;-75
2022/12/10 09:55:37;;;;;;;;;;;19.50;59.40;;;;;;4505594;31;20033;-75
2022/12/10 09:58:24;;;;;;;;;;;19.50;59.20;;;;;;4512383;31;20036;-76
2022/12/10 10:01:12;;;;;;;;;;;19.60;59.20;;;;;;4513618;31;20470;-76
2022/12/10 10:03:58;;;;;;;;;;;19.50;59.10;;;;;;4488475;31;20090;-74
2022/12/10 10:06:44;;;;;;;;;;;19.50;59.20;;;;;;4503100;31;20025;-74
2022/12/10 10:09:31;;;;;;;;;;;19.50;59.20;;;;;;4506289;31;20068;-74
2022/12/10 10:12:17;;;;;;;;;;;19.40;59.20;;;;;;4512170;31;20082;-74
2022/12/10 10:15:12;;;;;;;;;;;19.40;60.20;;;;;;4483682;31;20486;-74
2022/12/10 10:18:01;;;;;;;;;;;19.40;59.10;;;;;;4493736;31;20146;-74
2022/12/10 10:20:26;;;;;;;;;;;19.50;59.00;;;;;;4515813;31;20044;-74
2022/12/10 10:22:55;;;;;;;;;;;19.50;58.80;;;;;;4514124;31;20359;-74
2022/12/10 10:25:27;;;;;;;;;;;19.60;58.70;;;;;;4516058;31;20033;-74
2022/12/10 10:27:53;;;;;;;;;;;19.60;58.40;;;;;;4515233;31;20149;-74
2022/12/10 10:30:21;;;;;;;;;;;19.70;58.30;;;;;;4514953;31;20090;-74
2022/12/10 10:32:55;;;;;;;;;;;19.70;58.20;;;;;;4515153;31;20454;-75
2022/12/10 10:35:32;;;;;;;;;;;19.80;58.10;;;;;;4515395;31;20217;-74
2022/12/10 10:38:04;;;;;;;;;;;19.80;58.00;;;;;;4515739;31;20040;-74
2022/12/10 10:40:42;;;;;;;;;;;19.80;58.10;;;;;;4515099;31;20151;-74
2022/12/10 10:43:14;;;;;;;;;;;19.80;58.00;;;;;;4515372;31;20603;-74
2022/12/10 10:45:41;;;;;;;;;;;19.80;58.00;;;;;;4515280;31;20488;-74
2022/12/10 10:48:14;;;;;;;;;;;19.80;58.00;;;;;;4514136;31;20200;-74
2022/12/10 10:51:03;;;;;;;;;;;19.80;57.90;;;;;;4515780;31;20036;-74
2022/12/10 10:53:38;;;;;;;;;;;19.80;57.90;;;;;;4499105;31;20489;-74
2022/12/10 10:56:11;;;;;;;;;;;19.80;57.90;;;;;;4515438;31;20043;-74
2022/12/10 10:58:46;;;;;;;;;;;19.80;57.90;;;;;;4514931;31;20113;-74
2022/12/10 11:01:12;;;;;;;;;;;19.80;57.80;;;;;;4514995;31;20064;-74
2022/12/10 11:03:44;;;;;;;;;;;19.90;57.80;;;;;;4515388;31;20086;-74
2022/12/10 11:06:19;;;;;;;;;;;19.90;57.70;;;;;;4513797;31;20044;-74
2022/12/10 11:08:46;;;;;;;;;;;19.90;57.60;;;;;;4515195;31;20124;-74
2022/12/10 11:11:20;;;;;;;;;;;19.90;57.60;;;;;;4514427;31;20032;-74
2022/12/10 11:13:46;;;;;;;;;;;19.90;57.70;;;;;;4514364;31;20027;-74
2022/12/10 11:16:15;;;;;;;;;;;19.90;57.60;;;;;;4515064;31;20067;-74
2022/12/10 11:18:42;;;;;;;;;;;19.90;57.40;;;;;;4513326;31;20025;-75
2022/12/10 11:21:14;;;;;;;;;;;19.90;57.30;;;;;;4514081;31;20033;-74
2022/12/10 11:23:48;;;;;;;;;;;20.00;57.20;;;;;;4514331;31;20146;-74
2022/12/10 11:26:29;;;;;;;;;;;20.00;57.10;;;;;;4513634;31;20039;-75
2022/12/10 11:28:58;;;;;;;;;;;20.00;57.00;;;;;;4514919;31;20048;-74
2022/12/10 11:31:46;;;;;;;;;;;20.10;57.00;;;;;;4514226;31;20032;-74
2022/12/10 11:34:42;;;;;;;;;;;20.10;57.00;;;;;;4515069;31;20028;-75
2022/12/10 11:37:17;;;;;;;;;;;20.10;57.00;;;;;;4513540;31;20093;-75
2022/12/10 11:40:18;;;;;;;;;;;20.10;56.90;;;;;;4514090;31;20072;-75
2022/12/10 11:42:47;;;;;;;;;;;20.20;56.80;;;;;;4464812;32;20157;-75
2022/12/10 11:45:16;;;;;;;;;;;20.20;56.70;;;;;;4496095;31;20041;-75
2022/12/10 11:47:45;;;;;;;;;;;20.30;56.60;;;;;;4511961;31;20201;-73
2022/12/10 11:50:10;;;;;;;;;;;20.30;56.50;;;;;;4513347;31;20105;-75
2022/12/10 11:52:36;;;;;;;;;;;20.30;56.40;;;;;;4513403;31;20036;-74
2022/12/10 11:55:23;;;;;;;;;;;20.30;56.30;;;;;;4510197;31;20076;-74
2022/12/10 11:58:00;;;;;;;;;;;20.30;56.00;;;;;;4511724;31;20029;-75
2022/12/10 12:00:29;;;;;;;;;;;20.40;55.90;;;;;;4510561;31;20140;-78
2022/12/10 12:03:20;;;;;;;;;;;20.40;55.80;;;;;;4512516;31;20024;-73
2022/12/10 12:05:52;;;;;;;;;;;20.40;55.60;;;;;;4511636;31;20090;-73
2022/12/10 12:08:17;;;;;;;;;;;20.40;55.50;;;;;;4511909;31;20089;-80
2022/12/10 12:10:44;;;;;;;;;;;20.40;55.40;;;;;;4484255;31;36890;-72
2022/12/10 12:13:15;;;;;;;;;;;20.40;55.40;;;;;;4512644;31;20039;-73
2022/12/10 12:15:54;;;;;;;;;;;20.40;55.30;;;;;;4510523;31;20147;-74
2022/12/10 12:18:23;;;;;;;;;;;20.50;55.30;;;;;;4510900;31;20037;-74
2022/12/10 12:21:02;;;;;;;;;;;20.50;55.30;;;;;;4511810;31;20060;-74
2022/12/10 12:23:40;;;;;;;;;;;20.50;55.10;;;;;;4512046;31;20024;-74
2022/12/10 12:26:10;;;;;;;;;;;20.50;55.00;;;;;;4511525;31;20041;-73
2022/12/10 12:28:59;;;;;;;;;;;20.50;54.90;;;;;;4522909;31;20211;-74
2022/12/10 12:31:37;;;;;;;;;;;20.60;54.90;;;;;;4500683;31;20079;-75
2022/12/10 12:34:06;;;;;;;;;;;20.60;54.80;;;;;;4509367;31;20598;-74
2022/12/10 12:36:34;;;;;;;;;;;20.60;54.70;;;;;;4521785;31;20037;-73
2022/12/10 12:39:18;;;;;;;;;;;20.60;54.70;;;;;;4510464;31;20487;-73
2022/12/10 12:41:47;;;;;;;;;;;20.60;54.60;;;;;;4510236;31;20577;-72
2022/12/10 12:44:29;;;;;;;;;;;20.70;54.60;;;;;;4510068;31;20083;-75
2022/12/10 12:46:58;;;;;;;;;;;20.70;54.50;;;;;;4511326;31;20083;-74
2022/12/10 12:49:29;;;;;;;;;;;20.70;54.50;;;;;;4511904;31;20409;-73
2022/12/10 12:52:01;;;;;;;;;;;20.70;54.50;;;;;;4496135;31;20041;-71
2022/12/10 12:54:33;;;;;;;;;;;20.70;54.50;;;;;;4510243;31;20036;-74
2022/12/10 12:57:05;;;;;;;;;;;20.70;54.40;;;;;;4510401;31;20025;-75
2022/12/10 13:00:10;;;;;;;;;;;20.70;54.40;;;;;;4507470;31;20053;-74
2022/12/10 13:02:47;;;;;;;;;;;20.70;54.40;;;;;;4447627;32;20512;-75
2022/12/10 13:05:34;;;;;;;;;;;20.70;54.30;;;;;;4440917;32;20056;-72
2022/12/10 13:08:25;;;;;;;;;;;20.70;54.20;;;;;;4487432;31;20037;-72
2022/12/10 13:11:10;;;;;;;;;;;20.80;54.20;;;;;;4477205;31;20040;-73
2022/12/10 13:13:37;;;;;;;;;;;20.80;54.10;;;;;;4510476;31;20029;-73
2022/12/10 13:16:22;;;;;;;;;;;20.70;54.00;;;;;;4510978;31;20170;-73
2022/12/10 13:18:47;;;;;;;;;;;20.80;54.10;;;;;;4511211;31;20055;-73
2022/12/10 13:21:22;;;;;;;;;;;20.70;54.00;;;;;;4497785;31;20017;-73
2022/12/10 13:23:54;;;;;;;;;;;20.80;53.90;;;;;;4505451;31;20025;-73
2022/12/10 13:26:27;;;;;;;;;;;20.80;53.90;;;;;;4507440;31;20032;-73
2022/12/10 13:28:54;;;;;;;;;;;20.80;53.90;;;;;;4511373;31;20040;-73
2022/12/10 13:31:22;;;;;;;;;;;20.70;53.80;;;;;;4506758;31;20036;-74
2022/12/10 13:33:50;;;;;;;;;;;20.70;53.80;;;;;;4505768;31;20056;-75
2022/12/10 13:36:39;;;;;;;;;;;20.70;54.00;;;;;;4510734;31;20043;-73
2022/12/10 13:39:06;;;;;;;;;;;20.70;54.10;;;;;;4482973;31;20032;-73
2022/12/10 13:44:31;;;;;;;;;;;20.60;54.30;;;;;;4500489;31;20042;-72
2022/12/10 13:46:58;;;;;;;;;;;20.60;54.40;;;;;;4505041;31;20043;-72
2022/12/10 13:49:29;;;;;;;;;;;20.60;54.40;;;;;;4508766;31;20044;-72
2022/12/10 13:51:55;;;;;;;;;;;20.60;54.30;;;;;;4497933;31;20037;-72
2022/12/10 13:54:28;;;;;;;;;;;20.70;54.30;;;;;;4500359;31;20010;-74
2022/12/10 13:57:12;;;;;;;;;;;20.70;54.30;;;;;;4501131;31;20028;-74
2022/12/10 13:59:44;;;;;;;;;;;20.70;54.20;;;;;;4500664;31;20167;-74
2022/12/10 14:02:10;;;;;;;;;;;20.80;54.10;;;;;;4499646;31;20037;-73
2022/12/10 14:04:54;;;;;;;;;;;20.80;54.00;;;;;;4502885;31;20013;-72
2022/12/10 14:07:21;;;;;;;;;;;20.80;54.00;;;;;;4503854;31;20046;-73
2022/12/10 14:09:51;;;;;;;;;;;20.80;54.00;;;;;;4504218;31;20036;-74
2022/12/10 14:12:18;;;;;;;;;;;20.80;54.00;;;;;;4502410;31;20033;-74
2022/12/10 14:14:47;;;;;;;;;;;20.80;54.00;;;;;;4474489;31;20044;-75
2022/12/10 14:17:15;;;;;;;;;;;20.80;54.00;;;;;;4504883;31;20078;-75
2022/12/10 14:19:42;;;;;;;;;;;20.80;54.10;;;;;;4503546;31;20497;-74
2022/12/10 14:22:13;;;;;;;;;;;20.90;54.20;;;;;;4491083;31;20036;-74
2022/12/10 14:24:39;;;;;;;;;;;20.90;54.20;;;;;;4513486;31;20092;-74
2022/12/10 14:27:13;;;;;;;;;;;20.90;54.20;;;;;;4514711;31;20021;-74
2022/12/10 14:29:43;;;;;;;;;;;20.90;54.30;;;;;;4503109;31;20048;-73
2022/12/10 14:32:17;;;;;;;;;;;20.90;54.30;;;;;;4495185;31;20150;-73
2022/12/10 14:34:43;;;;;;;;;;;20.90;54.40;;;;;;4500767;31;20460;-73
2022/12/10 14:37:11;;;;;;;;;;;21.00;54.50;;;;;;4504324;31;20027;-73
2022/12/10 14:39:38;;;;;;;;;;;21.00;54.50;;;;;;4511981;31;20432;-73
2022/12/10 14:42:05;;;;;;;;;;;21.00;54.60;;;;;;4514841;31;20460;-74
2022/12/10 14:44:31;;;;;;;;;;;21.00;54.70;;;;;;4510548;31;20043;-73